ΕΜΥ, Εθνική Μετεωρολογική Υπηρεσία - Δελτία Καιρού, Προγνώσεις

ΑΕΡΟΝΑΥΤΙΛΙΑ

GREEK AIRPORTS CODES

TAF LGLM 212000Z 2121/2206 18008KT 9999 FEW020=

EUROPEAN AIRPORTS CODES

UUWW 212030Z 11002MPS CAVOK 22/14 Q1021 R24/000070 NOSIG=